Terminal Aerodrome Forecast
Issued by NWS Charleston, WV

Home | Current Version | Previous Version | Text Only | Print | Product List | Glossary On
Versions: 1 2 3 4 5 6 7 8 9 10 11 12 13 14 15 16 17 18 19 20 21 22 23 24
774
FTUS41 KRLX 280003 CCA
TAFBKW
TAF COR
KBKW 280003Z 2800/2824 21007KT P6SM OVC040
     FM280100 21007KT P6SM OVC080
      TEMPO 2804/2806 4SM +SHRA BR OVC040
     FM280600 24007KT P6SM OVC050
      TEMPO 2806/2809 2SM +SHRA BR OVC025
     FM280900 23007KT 5SM +SHRA BR OVC080
     FM282100 26004KT 2SM +SHRA BR VCTS OVC015CB
     FM282200 27005KT 3SM +SHRA BR OVC025=

USA.gov is the U.S. government's official web portal to all federal, state and local government web resources and services.